South Solon, Ohio
Current Conditions -  °F | °C
As of 12:56 AM on Thursday 29 Jan 2015 (Local Time) from KSGH Reporting Station
Clear Clear  
Wind Chill: 16°   Ceiling: Unl
Heat Index: 27°   Visibility: 9mi
Dew Point: 20°   Wind: 13mph
Humidity: 75%   Direction: 150°SSE
Pressure: 30.12"   Gusts: NA
Location:  39.74°N, 83.61°W
Report Text: KSGH 290556Z AUTO 15011KT 9SM CLR M03/M07 A3012 RMK AO2 56028 T10271066 11027 21061 SLP213
Loading
Personal Weather Stations






























Interactive Weather Map New forecast layout! Learn more

10-Day Weather Forecast

Advertisements
Track Severe Weather on mobile